createdAt,value
2023-05-18T01:06:47.750Z,100440.84
2023-05-18T01:09:17.811Z,100438.73
2023-05-18T01:27:06.889Z,100453.76
2023-05-18T01:29:36.167Z,100449.92
2023-05-18T01:32:07.728Z,100453.30
2023-05-18T01:34:38.366Z,100461.67
2023-05-18T01:37:11.305Z,100451.61
2023-05-18T01:43:19.967Z,100448.91
2023-05-18T01:46:28.814Z,100451.05
2023-05-18T01:49:26.166Z,100457.38
2023-05-18T02:41:08.250Z,100483.88
2023-05-18T04:36:49.551Z,100549.09
2023-05-18T04:43:11.609Z,100559.42
2023-05-18T04:46:14.363Z,100568.02
2023-05-18T04:48:53.216Z,100557.91
2023-05-18T04:51:57.953Z,100563.27
2023-05-18T04:58:03.982Z,100569.15
2023-05-18T05:01:52.955Z,100559.42
2023-05-18T05:05:33.241Z,100566.83
2023-05-18T05:08:09.140Z,100559.29
2023-05-18T05:10:38.276Z,100556.16
2023-05-18T05:13:07.176Z,100555.88
2023-05-18T05:20:46.824Z,100553.05
2023-05-18T05:27:10.248Z,100563.91
2023-05-18T05:29:43.055Z,100557.23
2023-05-18T05:32:12.718Z,100553.52
2023-05-18T05:34:46.816Z,100557.77
2023-05-18T05:37:15.181Z,100553.79
2023-05-18T05:39:45.685Z,100561.41
2023-05-18T05:42:16.920Z,100556.75
2023-05-18T05:44:47.240Z,100557.66
2023-05-18T05:47:17.574Z,100550.73
2023-05-18T05:49:46.557Z,100553.11
2023-05-18T05:52:17.829Z,100549.04
2023-05-18T05:54:46.556Z,100551.09
2023-05-18T05:57:19.003Z,100539.39
2023-05-18T05:59:49.977Z,100531.65
2023-05-18T06:02:19.101Z,100533.36
2023-05-18T06:04:49.458Z,100542.97
2023-05-18T06:07:17.677Z,100545.69
2023-05-18T06:09:50.619Z,100539.12
2023-05-18T06:12:22.471Z,100542.50
2023-05-18T06:14:54.441Z,100548.66
2023-05-18T06:17:28.039Z,100542.83
2023-05-18T06:19:58.552Z,100540.54
2023-05-18T06:22:29.852Z,100545.67
2023-05-18T06:25:22.396Z,100539.10
2023-05-18T06:28:08.382Z,100542.70
2023-05-18T06:30:46.682Z,100548.75
2023-05-18T06:33:21.592Z,100545.65
2023-05-18T06:35:50.030Z,100551.85
2023-05-18T06:38:21.499Z,100558.02
2023-05-18T06:40:50.380Z,100561.98
2023-05-18T06:43:18.965Z,100569.14
2023-05-18T06:46:01.800Z,100572.98
2023-05-18T06:48:37.932Z,100594.36
2023-05-18T06:51:06.446Z,100610.56
2023-05-18T06:53:34.907Z,100589.30
2023-05-18T06:56:04.887Z,100586.52
2023-05-18T06:58:33.588Z,100598.99
2023-05-18T07:01:05.346Z,100586.54
2023-05-18T07:03:39.453Z,100592.05
2023-05-18T07:06:12.445Z,100574.58
2023-05-18T07:08:43.852Z,100579.86
2023-05-18T07:11:14.958Z,100595.20
2023-05-18T07:13:45.134Z,100592.06
2023-05-18T07:16:15.797Z,100607.38
2023-05-18T07:18:44.157Z,100606.66
2023-05-18T07:21:17.389Z,100600.19
2023-05-18T07:23:47.833Z,100598.18
2023-05-18T07:26:16.215Z,100598.76
2023-05-18T07:28:44.973Z,100606.97
2023-05-18T07:51:38.792Z,100603.77
2023-05-18T07:54:07.410Z,100616.14
2023-05-18T07:56:40.845Z,100614.88
2023-05-18T07:59:12.140Z,100621.64
2023-05-18T08:01:41.532Z,100608.33
2023-05-18T08:04:11.970Z,100608.24
2023-05-18T08:06:40.106Z,100594.89
2023-05-18T08:09:07.884Z,100591.71
2023-05-18T08:11:36.163Z,100580.17
2023-05-18T08:14:09.281Z,100575.73
2023-05-18T08:16:40.000Z,100584.78
2023-05-18T08:19:10.877Z,100591.22
2023-05-18T08:21:39.021Z,100595.61
2023-05-18T08:24:09.888Z,100591.52
2023-05-18T08:26:43.061Z,100581.19
2023-05-18T08:29:13.791Z,100574.59
2023-05-18T08:31:46.356Z,100587.39
2023-05-18T08:34:15.699Z,100584.03
2023-05-18T08:36:46.476Z,100578.28
2023-05-18T08:39:19.355Z,100571.10
2023-05-18T08:42:04.679Z,100577.73
2023-05-18T08:44:47.462Z,100580.39
2023-05-18T08:47:18.366Z,100558.05
2023-05-18T08:49:52.707Z,100550.31
2023-05-18T08:52:26.401Z,100565.20
2023-05-18T08:54:56.526Z,100563.75
2023-05-18T08:57:30.694Z,100579.86
2023-05-18T09:00:01.095Z,100587.80
2023-05-18T09:02:31.575Z,100563.31
2023-05-18T09:05:00.191Z,100555.63
2023-05-18T09:07:31.536Z,100554.43
2023-05-18T09:10:01.144Z,100557.61
2023-05-18T09:12:34.488Z,100552.19
2023-05-18T09:15:03.826Z,100539.13
2023-05-18T09:17:32.030Z,100547.25
2023-05-18T09:20:02.449Z,100549.19
2023-05-18T09:22:30.491Z,100543.18
2023-05-18T09:24:58.660Z,100537.36
2023-05-18T09:27:30.560Z,100555.45
2023-05-18T09:29:58.846Z,100546.73
2023-05-18T09:32:27.145Z,100527.66
2023-05-18T09:34:55.562Z,100548.09
2023-05-18T09:37:23.762Z,100551.52
2023-05-18T09:40:06.252Z,100555.69
2023-05-18T09:42:39.190Z,100550.02
2023-05-18T09:45:28.809Z,100552.14
2023-05-18T09:47:57.242Z,100549.44
2023-05-18T09:50:26.597Z,100548.41
2023-05-18T09:52:57.541Z,100536.98
2023-05-18T09:55:25.597Z,100536.54
2023-05-18T09:57:56.306Z,100548.19
2023-05-18T10:00:26.952Z,100548.70
2023-05-18T10:02:56.677Z,100557.33
2023-05-18T10:05:34.051Z,100557.61
2023-05-18T10:08:03.486Z,100549.36
2023-05-18T10:10:31.462Z,100561.11
2023-05-18T10:13:04.786Z,100554.19
2023-05-18T10:15:35.335Z,100556.10
2023-05-18T10:18:07.704Z,100542.97
2023-05-18T10:20:35.836Z,100539.41
2023-05-18T10:23:08.700Z,100546.38
2023-05-18T10:25:42.564Z,100556.67
2023-05-18T10:28:26.054Z,100563.15
2023-05-18T10:31:00.374Z,100562.16
2023-05-18T10:33:33.490Z,100559.05
2023-05-18T10:36:11.229Z,100560.57
2023-05-18T10:38:46.913Z,100559.86
2023-05-18T10:41:21.636Z,100556.45
2023-05-18T10:43:49.933Z,100560.52
2023-05-18T10:46:21.599Z,100569.27
2023-05-18T10:48:52.991Z,100564.84
2023-05-18T10:51:25.985Z,100576.62
2023-05-18T10:54:10.284Z,100575.70
2023-05-18T10:56:52.320Z,100562.39
2023-05-18T10:59:23.441Z,100583.34
2023-05-18T11:01:54.389Z,100580.22
2023-05-18T11:04:31.585Z,100565.95
2023-05-18T11:07:01.542Z,100562.26
2023-05-18T11:09:32.671Z,100548.83
2023-05-18T11:12:06.316Z,100539.70
2023-05-18T11:14:34.695Z,100555.59
2023-05-18T11:17:23.547Z,100561.22
2023-05-18T11:20:06.358Z,100557.40
2023-05-18T11:23:02.540Z,100550.38
2023-05-18T11:25:33.205Z,100545.60
2023-05-18T11:28:05.796Z,100550.23
2023-05-18T11:30:33.835Z,100546.65
2023-05-18T11:33:11.191Z,100533.51
2023-05-18T11:36:08.709Z,100540.31
2023-05-18T11:39:03.688Z,100538.91
2023-05-18T11:41:42.645Z,100548.41
2023-05-18T11:44:25.142Z,100550.99
2023-05-18T11:47:16.147Z,100550.29
2023-05-18T11:50:00.465Z,100547.39
2023-05-18T11:52:31.448Z,100544.00
2023-05-18T11:55:02.842Z,100551.77
2023-05-18T11:57:36.688Z,100556.02
2023-05-18T12:37:58.226Z,100587.86
2023-05-18T12:40:26.787Z,100580.20
2023-05-18T12:42:57.142Z,100599.87
2023-05-18T12:45:28.650Z,100597.98
2023-05-18T12:47:57.610Z,100602.73
2023-05-18T12:50:27.223Z,100603.00
2023-05-18T12:52:59.248Z,100592.42
2023-05-18T12:55:28.314Z,100588.83
2023-05-18T12:58:12.995Z,100583.93
2023-05-18T13:00:43.493Z,100597.19
2023-05-18T13:03:16.486Z,100597.27
2023-05-18T13:06:04.469Z,100599.92
2023-05-18T13:08:34.937Z,100589.35
2023-05-18T14:08:58.880Z,100594.46
2023-05-18T14:11:26.803Z,100590.64
2023-05-18T14:13:54.889Z,100593.39
2023-05-18T14:16:23.156Z,100594.48
2023-05-18T14:18:51.261Z,100579.86
2023-05-18T14:21:21.571Z,100565.56
2023-05-18T14:23:49.429Z,100571.09
2023-05-18T14:26:17.492Z,100566.14
2023-05-18T14:28:46.261Z,100576.40
2023-05-18T14:31:14.558Z,100581.79
2023-05-18T14:33:42.519Z,100576.95
2023-05-18T14:36:10.486Z,100572.27
2023-05-18T14:38:41.425Z,100564.77
2023-05-18T14:41:12.299Z,100561.45
2023-05-18T14:43:40.110Z,100570.22
2023-05-18T14:46:10.796Z,100574.05
2023-05-18T14:48:41.010Z,100574.00
2023-05-18T14:51:11.163Z,100572.70
2023-05-18T14:53:39.451Z,100574.48
2023-05-18T14:56:09.302Z,100578.08
2023-05-18T14:58:39.919Z,100575.20
2023-05-18T15:01:10.428Z,100586.34
2023-05-18T15:03:38.370Z,100587.59
2023-05-18T15:06:11.581Z,100587.50
2023-05-18T15:08:39.512Z,100591.41
2023-05-18T15:11:10.064Z,100580.85
2023-05-18T15:13:37.875Z,100571.85
2023-05-18T15:16:05.885Z,100580.40
2023-05-18T15:18:36.178Z,100580.59
2023-05-18T15:21:04.344Z,100584.84
2023-05-18T15:23:37.025Z,100583.01
2023-05-18T15:26:07.382Z,100591.16
2023-05-18T15:28:38.939Z,100585.50
2023-05-18T15:31:06.821Z,100579.91
2023-05-18T15:33:36.724Z,100589.06
2023-05-18T15:36:10.123Z,100586.31
2023-05-18T15:38:41.150Z,100579.94
2023-05-18T15:41:09.131Z,100586.83
2023-05-18T15:43:40.557Z,100582.64
2023-05-18T15:46:11.314Z,100585.08
2023-05-18T15:48:44.445Z,100585.77
2023-05-18T15:51:15.037Z,100583.42
2023-05-18T15:53:50.490Z,100582.63
2023-05-18T15:56:19.048Z,100582.89
2023-05-18T15:58:49.290Z,100586.44
2023-05-18T16:01:22.889Z,100595.77
2023-05-18T16:03:55.884Z,100593.44
2023-05-18T16:06:26.057Z,100595.17
2023-05-18T16:08:56.648Z,100610.88
2023-05-18T16:11:24.479Z,100603.02
2023-05-18T16:13:57.113Z,100610.45
2023-05-18T16:16:29.927Z,100614.60
2023-05-18T16:19:07.313Z,100612.48
2023-05-18T16:21:35.417Z,100612.35
2023-05-18T16:24:03.832Z,100614.25
2023-05-18T16:26:36.341Z,100609.98
2023-05-18T16:29:05.318Z,100608.11
2023-05-18T16:31:34.365Z,100603.04
2023-05-18T16:34:05.883Z,100612.41
2023-05-18T16:36:37.419Z,100617.57
2023-05-18T16:39:07.967Z,100616.67
2023-05-18T16:41:35.937Z,100606.81
2023-05-18T16:44:06.333Z,100606.95
2023-05-18T16:46:34.578Z,100611.15
2023-05-18T16:49:05.182Z,100615.30
2023-05-18T16:51:35.537Z,100612.31
2023-05-18T16:54:06.920Z,100611.95
2023-05-18T16:56:37.515Z,100611.06
2023-05-18T16:59:05.631Z,100614.43
2023-05-18T17:01:34.149Z,100611.37
2023-05-18T17:04:02.399Z,100613.91
2023-05-18T17:06:32.951Z,100617.38
2023-05-18T17:09:00.789Z,100621.37
2023-05-18T17:11:29.096Z,100630.34
2023-05-18T17:14:04.400Z,100633.39
2023-05-18T17:16:34.414Z,100637.55
2023-05-18T17:19:02.909Z,100636.39
2023-05-18T17:21:31.126Z,100638.67
2023-05-18T17:23:59.277Z,100641.16
2023-05-18T17:26:30.817Z,100639.75
2023-05-18T17:28:58.800Z,100648.23
2023-05-18T17:31:29.291Z,100636.71
2023-05-18T17:33:59.680Z,100638.40
2023-05-18T17:36:27.772Z,100647.03
2023-05-18T17:38:56.628Z,100639.50
2023-05-18T17:41:26.107Z,100636.80
2023-05-18T17:43:54.667Z,100651.52
2023-05-18T17:46:27.974Z,100668.64
2023-05-18T17:48:58.561Z,100663.91
2023-05-18T17:51:29.336Z,100668.41
2023-05-18T17:53:57.506Z,100668.70
2023-05-18T17:56:28.185Z,100662.86
2023-05-18T17:58:58.672Z,100652.66
2023-05-18T18:01:28.159Z,100641.38
2023-05-18T18:03:57.582Z,100648.11
2023-05-18T18:06:26.703Z,100649.80
2023-05-18T18:08:57.593Z,100655.11
2023-05-18T18:11:26.577Z,100660.35
2023-05-18T18:13:55.492Z,100664.63
2023-05-18T18:16:23.696Z,100666.04
2023-05-18T18:18:52.384Z,100671.05
2023-05-18T18:21:20.601Z,100671.61
2023-05-18T18:23:48.529Z,100669.50
2023-05-18T18:26:16.882Z,100673.65
2023-05-18T18:28:45.007Z,100683.81
2023-05-18T18:31:15.286Z,100678.27
2023-05-18T18:33:50.061Z,100680.98
2023-05-18T18:36:18.479Z,100683.30
2023-05-18T18:38:47.102Z,100683.61
2023-05-18T18:41:17.724Z,100682.71
2023-05-18T18:43:47.831Z,100686.95
2023-05-18T18:46:15.914Z,100688.96
2023-05-18T18:48:48.321Z,100695.85
2023-05-18T18:51:23.610Z,100694.20
2023-05-18T20:05:32.015Z,100738.83
2023-05-18T20:08:02.050Z,100737.85
2023-05-18T20:10:30.571Z,100748.44
2023-05-18T20:13:04.051Z,100756.39
2023-05-18T20:15:37.124Z,100765.52
2023-05-18T20:25:56.288Z,100789.67
2023-05-18T20:28:27.747Z,100789.16
2023-05-18T20:30:55.981Z,100780.34
2023-05-18T20:33:23.903Z,100776.54
2023-05-18T20:35:51.938Z,100774.04
2023-05-18T20:38:19.988Z,100772.46
2023-05-18T20:40:51.128Z,100772.96
2023-05-18T20:43:19.395Z,100773.97
2023-05-18T20:45:49.383Z,100769.66
2023-05-18T20:48:26.692Z,100769.18
2023-05-18T20:50:54.943Z,100768.11
2023-05-18T21:16:18.585Z,100737.27
2023-05-18T21:18:49.037Z,100735.36
2023-05-18T21:21:19.375Z,100730.80
2023-05-18T21:23:47.489Z,100730.31
2023-05-18T21:26:20.711Z,100732.41
2023-05-18T21:28:48.580Z,100731.98
2023-05-18T21:31:19.278Z,100731.06
2023-05-18T21:33:48.444Z,100723.23
2023-05-18T21:36:16.644Z,100719.09
2023-05-18T21:38:47.114Z,100715.62
2023-05-18T21:41:14.998Z,100714.48
2023-05-18T21:43:43.403Z,100707.35
2023-05-18T21:46:14.024Z,100703.30
2023-05-18T21:48:44.556Z,100697.30
2023-05-18T21:51:14.982Z,100694.36
2023-05-18T21:53:48.056Z,100690.38
2023-05-18T21:56:24.065Z,100683.02
2023-05-18T21:58:52.463Z,100677.27
2023-05-18T22:01:24.056Z,100673.21
2023-05-18T22:03:54.521Z,100666.56
2023-05-18T22:06:24.804Z,100659.45
2023-05-18T22:08:57.569Z,100656.39
2023-05-18T22:11:28.823Z,100651.01
2023-05-18T22:13:59.116Z,100648.07
2023-05-18T22:16:31.707Z,100635.41
2023-05-18T22:18:59.681Z,100631.52
2023-05-18T22:21:27.956Z,100630.32
2023-05-18T22:23:58.283Z,100625.59
2023-05-18T22:26:28.798Z,100619.34
2023-05-18T22:28:56.861Z,100610.77
2023-05-18T22:31:25.108Z,100604.88
2023-05-18T22:33:55.430Z,100598.84
2023-05-18T22:36:23.705Z,100594.00
2023-05-18T22:38:52.389Z,100588.45
2023-05-18T22:41:22.997Z,100587.24
2023-05-18T22:43:51.233Z,100587.91
2023-05-18T22:46:19.630Z,100584.40
2023-05-18T22:48:53.563Z,100575.29
2023-05-18T22:51:28.398Z,100565.57
2023-05-18T22:53:56.718Z,100562.02
2023-05-18T22:56:24.791Z,100559.49
2023-05-18T22:58:54.963Z,100550.02
2023-05-18T23:01:25.303Z,100551.38
2023-05-18T23:03:57.209Z,100550.30
2023-05-18T23:06:27.302Z,100546.11
2023-05-18T23:08:55.597Z,100548.52
2023-05-18T23:11:23.581Z,100543.75
2023-05-18T23:14:02.615Z,100540.02
2023-05-18T23:16:32.826Z,100538.38
2023-05-18T23:19:01.824Z,100545.58
2023-05-18T23:21:32.909Z,100553.10
2023-05-18T23:24:06.443Z,100554.63
2023-05-18T23:26:34.429Z,100554.98
2023-05-18T23:29:02.353Z,100553.29
2023-05-18T23:31:30.173Z,100551.59
2023-05-18T23:34:00.957Z,100546.45
2023-05-18T23:36:37.203Z,100550.45
2023-05-18T23:39:10.129Z,100549.66
2023-05-18T23:41:42.544Z,100540.11
2023-05-18T23:44:10.648Z,100540.57
2023-05-18T23:46:43.548Z,100541.15
2023-05-18T23:49:13.937Z,100540.06
2023-05-18T23:51:47.504Z,100543.41
2023-05-18T23:54:15.571Z,100541.70
2023-05-18T23:56:43.943Z,100546.04
2023-05-18T23:59:15.647Z,100545.86
